• Join FlightAware (Why Join?)
  • Login
  • US Flag 
05:08AM EST


 

Airport Tracker/Info


-or-


 

Live Flight TrackerFlight Track Log ✈ SWA776 ✈ 08-Mar-2014 ✈ KSFO - KPHX

Flight Track Log - Related Links

Times and Time Zones

All times are in EST time to prevent confusion due to time zone crossing. See the SWA776 flight status page for this flight to view local times or setup timezone preferences in your user account.

Time Position Orientation Groundspeed Altitude Reporting Facility
EST Latitude Longitude Course Direction KTS MPH feet Rate Location/Type
10:58AM 37.6400 -122.3675 North 157 181 1,100  Level Oakland Center
10:59AM 37.6931 -122.3664 North 196 226 3,200 2,400 Climbing Oakland Center
11:00AM 37.6881 -122.4200 263° West 221 254 6,100 2,820 Climbing Oakland Center
11:01AM 37.6217 -122.4414 194° South 242 278 9,000 2,880 Climbing Oakland Center
11:02AM 37.5372 -122.4578 189° South 322 371 12,000 3,000 Climbing Oakland Center
11:03AM 37.4681 -122.3819 139° Southeast 332 382 15,200 2,880 Climbing Oakland Center
11:04AM 37.4033 -122.2819 129° Southeast 365 420 17,900 2,940 Climbing Oakland Center
11:05AM 37.3217 -122.1575 130° Southeast 386 444 21,200 2,760 Climbing Oakland Center
11:06AM 37.2483 -122.0478 130° Southeast 408 470 23,600 2,220 Climbing Oakland Center
11:07AM 37.1728 -121.9319 129° Southeast 426 490 25,800 1,920 Climbing Oakland Center
11:08AM 37.0911 -121.8100 130° Southeast 446 513 27,600 1,560 Climbing Oakland Center
11:09AM 37.0078 -121.6900 131° Southeast 467 537 29,100 1,500 Climbing Oakland Center
11:10AM 36.9206 -121.5642 131° Southeast 480 552 30,700 1,440 Climbing Oakland Center
11:11AM 36.8347 -121.4278 128° Southeast 497 572 32,100 1,440 Climbing Oakland Center
11:12AM 36.7447 -121.3042 132° Southeast 504 580 33,700 1,620 Climbing Oakland Center
11:13AM 36.6356 -121.1419 130° Southeast 507 583 35,500 1,500 Climbing Oakland Center
11:14AM 36.5447 -121.0047 129° Southeast 512 589 36,800 1,260 Climbing Oakland Center
11:15AM 36.4636 -120.8614 125° Southeast 509 586 38,100 1,080 Climbing Oakland Center
11:16AM 36.4000 -120.7072 117° Southeast 503 579 39,000 420 Climbing Oakland Center
11:17AM 36.3336 -120.5550 118° Southeast 501 577 39,000  Level Oakland Center
11:18AM 36.2678 -120.4028 118° Southeast 500 575 39,000  Level Oakland Center
11:19AM 36.2014 -120.2517 119° Southeast 499 574 39,000  Level Oakland Center
11:20AM 36.1356 -120.1011 118° Southeast 497 572 39,000  Level Oakland Center
11:21AM 36.0708 -119.9508 118° Southeast 495 570 39,000  Level Oakland Center
11:22AM 36.0056 -119.8036 119° Southeast 490 564 39,000  Level Oakland Center
11:23AM 35.9397 -119.6544 119° Southeast 490 564 39,000  Level Oakland Center
11:24AM 35.8728 -119.5069 119° Southeast 491 565 39,000  Level Oakland Center
11:25AM 35.8089 -119.3594 118° Southeast 489 563 39,000  Level Oakland Center
11:26AM 35.7286 -119.1842 119° Southeast 489 563 39,000  Level Oakland Center
11:27AM 35.6450 -119.0053 120° Southeast 494 568 39,000  Level Los Angeles Center
11:28AM 35.5789 -118.8589 119° Southeast 492 566 39,000  Level Los Angeles Center
11:29AM 35.5139 -118.7128 119° Southeast 490 564 39,000  Level Los Angeles Center
11:31AM 35.4469 -118.5664 119° Southeast 491 565 39,000  Level Los Angeles Center
11:32AM 35.3731 -118.4044 119° Southeast 492 566 39,000  Level Los Angeles Center
11:33AM 35.3042 -118.2600 120° Southeast 492 566 39,000  Level Los Angeles Center
11:34AM 35.2367 -118.1131 119° Southeast 496 571 39,000  Level Los Angeles Center
11:35AM 35.1681 -117.9675 120° Southeast 496 571 39,000  Level Los Angeles Center
11:36AM 35.0997 -117.8239 120° Southeast 494 568 39,000  Level Los Angeles Center
11:37AM 35.0306 -117.6758 120° Southeast 496 571 39,000  Level Los Angeles Center
11:38AM 34.9528 -117.5111 120° Southeast 497 572 39,000  Level Los Angeles Center
11:39AM 34.8836 -117.3658 120° Southeast 504 580 39,000  Level Los Angeles Center
11:40AM 34.8147 -117.2200 120° Southeast 501 577 39,000  Level Los Angeles Center
11:41AM 34.7308 -117.0447 120° Southeast 503 579 39,000  Level Los Angeles Center
11:42AM 34.6600 -116.8969 120° Southeast 507 583 39,000  Level Los Angeles Center
11:43AM 34.5883 -116.7494 121° Southeast 508 585 39,000  Level Los Angeles Center
11:44AM 34.5164 -116.6003 120° Southeast 512 589 39,000  Level Los Angeles Center
11:45AM 34.4436 -116.4506 120° Southeast 516 594 39,000  Level Los Angeles Center
11:46AM 34.3706 -116.3017 121° Southeast 516 594 39,000  Level Los Angeles Center
11:47AM 34.2861 -116.1303 121° Southeast 498 573 39,000  Level Los Angeles Center
11:48AM 34.2158 -115.9872 121° Southeast 495 570 39,000  Level Los Angeles Center
11:49AM 34.1494 -115.8553 121° Southeast 489 563 39,000  Level Los Angeles Center
11:50AM 34.0800 -115.7150 121° Southeast 487 560 39,000  Level Los Angeles Center
11:51AM 33.9953 -115.5500 122° Southeast 481 554 39,000  Level Los Angeles Center
11:52AM 33.9250 -115.4097 121° Southeast 486 559 39,000  Level Los Angeles Center
11:53AM 33.8556 -115.2722 121° Southeast 482 555 39,000  Level Los Angeles Center
11:54AM 33.7842 -115.1347 122° Southeast 483 556 39,000  Level Los Angeles Center
11:55AM 33.7183 -114.9950 120° Southeast 480 552 39,000 -540 Level Los Angeles Center
11:56AM 33.6783 -114.8486 108° East 462 532 38,000 -2,040 Descending Los Angeles Center
11:57AM 33.6294 -114.6728 108° East 465 535 34,900 -2,940 Descending Los Angeles Center
11:58AM 33.5867 -114.5247 109° East 472 543 32,000 -2,580 Descending Los Angeles Center
11:59AM 33.5478 -114.3803 108° East 459 528 29,600 -2,340 Descending Los Angeles Center
12:01PM 33.5039 -114.2269 109° East 453 521 27,100 -2,160 Descending Albuquerque Center
12:02PM 33.4656 -114.0925 109° East 441 507 25,100 -1,020 Descending Albuquerque Center
12:03PM 33.4350 -113.9578 105° East 428 493 25,000 -60 Descending Albuquerque Center
12:04PM 33.4078 -113.8175 103° East 427 491 25,000 -360 Level Albuquerque Center
12:05PM 33.3794 -113.6792 104° East 428 493 24,300 -1,500 Descending Albuquerque Center
12:06PM 33.3483 -113.5172 103° East 423 487 21,900 -2,220 Descending Albuquerque Center
12:07PM 33.3214 -113.3836 104° East 418 481 19,800 -2,040 Descending Albuquerque Center
12:08PM 33.2942 -113.2506 104° East 414 476 17,700 -2,040 Descending Albuquerque Center
12:09PM 33.2739 -113.1269 101° East 393 452 15,600 -1,800 Descending Albuquerque Center
12:10PM 33.2756 -113.0083 89° East 362 417 14,100 -1,560 Descending Albuquerque Center
12:11PM 33.2789 -112.8969 88° East 342 394 12,400 -1,440 Descending Albuquerque Center
12:12PM 33.2875 -112.7953 84° East 319 367 11,200 -1,260 Descending Albuquerque Center
12:13PM 33.3269 -112.6933 65° Northeast 287 330 9,900 -960 Descending Albuquerque Center
12:14PM 33.3567 -112.6131 66° East 271 312 9,300 -780 Descending Albuquerque Center
12:15PM 33.3867 -112.5408 64° Northeast 259 298 8,300 -660 Descending Albuquerque Center
12:16PM 33.4128 -112.4669 67° East 244 281 8,000 -540 Descending Albuquerque Center
12:17PM 33.4378 -112.3911 68° East 245 282 7,300 -1,140 Descending Albuquerque Center
12:18PM 33.4406 -112.3014 88° East 225 259 5,700 -1,500 Descending Albuquerque Center
12:19PM 33.4408 -112.2286 90° East 220 253 4,300 -1,200 Descending Albuquerque Center
12:20PM 33.4408 -112.1625 90° East 203 234 3,300 -1,020 Descending Albuquerque Center
12:21PM 33.4406 -112.1042 90° East 182 209 2,300 -840 Descending Albuquerque Center
12:22PM 33.4408 -112.0561 90° East 153 176 1,600 -660 Descending Albuquerque Center
12:23PM 33.4417 -112.0050 89° East 140 161 1,000 -600 Descending Albuquerque Center
12:25PM 33.4333 -112.0000 North  Level FlightAware Approximate
12:32PM 33.4343 -112.0116 North  Level Estimated
12:33PM 33.4343 -112.0116 North  Level Estimated
12:34PM 33.4343 -112.0116 North  Level Estimated
12:35PM 33.4343 -112.0116 North  Level Estimated
12:36PM 33.4343 -112.0116 North  Level Estimated
12:37PM 33.4343 -112.0116 North  Level Estimated
12:38PM 33.4343 -112.0116 North  Level Estimated
12:39PM 33.4343 -112.0116 North  Level Estimated
12:40PM 33.4343 -112.0116 North  Level Estimated